createdAt,value
2018-08-16T00:00:18.327Z,20.14
2018-08-16T00:02:47.615Z,20.19
2018-08-16T00:05:16.809Z,20.09
2018-08-16T00:07:46.022Z,19.99
2018-08-16T00:10:18.170Z,20.23
2018-08-16T00:12:48.699Z,20.08
2018-08-16T00:15:18.649Z,19.90
2018-08-16T00:17:47.719Z,19.91
2018-08-16T00:20:16.842Z,19.90
2018-08-16T00:22:46.029Z,19.88
2018-08-16T00:25:15.414Z,19.77
2018-08-16T00:27:44.438Z,19.88
2018-08-16T00:30:15.893Z,19.85
2018-08-16T00:32:45.081Z,19.82
2018-08-16T00:35:14.084Z,19.95
2018-08-16T00:37:43.307Z,19.89
2018-08-16T00:40:15.100Z,19.77
2018-08-16T00:42:43.954Z,19.90
2018-08-16T00:45:13.306Z,20.03
2018-08-16T00:47:42.339Z,19.93
2018-08-16T00:50:12.853Z,19.87
2018-08-16T00:52:41.730Z,19.84
2018-08-16T00:55:11.722Z,19.66
2018-08-16T00:57:40.688Z,19.86
2018-08-16T01:00:12.349Z,19.74
2018-08-16T01:02:41.395Z,19.77
2018-08-16T01:05:10.317Z,19.69
2018-08-16T01:07:39.399Z,19.68
2018-08-16T01:10:10.903Z,19.79
2018-08-16T01:12:40.220Z,19.55
2018-08-16T01:15:13.637Z,19.57
2018-08-16T01:17:42.624Z,19.60
2018-08-16T01:20:11.518Z,19.57
2018-08-16T01:22:40.472Z,19.66
2018-08-16T01:25:10.651Z,19.72
2018-08-16T01:27:39.652Z,19.59
2018-08-16T01:30:09.831Z,19.40
2018-08-16T01:32:38.714Z,19.40
2018-08-16T01:35:08.554Z,19.45
2018-08-16T01:37:37.505Z,19.64
2018-08-16T01:40:07.116Z,19.41
2018-08-16T01:42:36.394Z,19.42
2018-08-16T01:45:05.616Z,19.31
2018-08-16T01:47:34.565Z,19.50
2018-08-16T01:50:03.796Z,19.52
2018-08-16T01:52:32.840Z,19.46
2018-08-16T01:55:01.834Z,19.39
2018-08-16T01:57:30.995Z,19.41
2018-08-16T01:59:59.952Z,19.29
2018-08-16T02:02:28.936Z,19.35
2018-08-16T02:04:57.934Z,19.34
2018-08-16T02:07:26.788Z,18.99
2018-08-16T02:09:55.648Z,19.28
2018-08-16T02:12:24.672Z,19.17
2018-08-16T02:14:53.565Z,19.14
2018-08-16T02:17:22.442Z,19.02
2018-08-16T02:19:51.360Z,19.09
2018-08-16T02:22:20.451Z,19.20
2018-08-16T02:24:49.287Z,19.03
2018-08-16T02:27:18.204Z,19.18
2018-08-16T02:29:47.030Z,19.21
2018-08-16T02:32:15.983Z,19.11
2018-08-16T02:34:44.917Z,18.93
2018-08-16T02:37:13.847Z,19.20
2018-08-16T02:39:42.708Z,19.07
2018-08-16T02:42:11.631Z,18.99
2018-08-16T02:44:40.572Z,19.06
2018-08-16T02:47:09.405Z,18.97
2018-08-16T02:49:38.352Z,18.75
2018-08-16T02:52:07.289Z,18.89
2018-08-16T02:54:36.140Z,19.01
2018-08-16T02:57:05.144Z,19.04
2018-08-16T02:59:34.049Z,18.81
2018-08-16T03:02:03.028Z,18.86
2018-08-16T03:04:31.965Z,18.86
2018-08-16T03:07:00.807Z,18.67
2018-08-16T03:09:29.731Z,18.86
2018-08-16T03:11:58.837Z,18.72
2018-08-16T03:14:27.758Z,18.75
2018-08-16T03:16:56.693Z,18.82
2018-08-16T03:19:25.670Z,18.75
2018-08-16T03:21:54.509Z,18.62
2018-08-16T03:24:23.357Z,18.63
2018-08-16T03:26:52.419Z,18.71
2018-08-16T03:29:21.303Z,18.68
2018-08-16T03:31:50.124Z,18.67
2018-08-16T03:34:19.024Z,18.68
2018-08-16T03:36:47.876Z,18.47
2018-08-16T03:39:16.723Z,18.61
2018-08-16T03:41:45.724Z,18.63
2018-08-16T03:44:14.582Z,18.66
2018-08-16T03:46:43.410Z,18.70
2018-08-16T03:49:12.376Z,18.66
2018-08-16T03:51:41.196Z,18.65
2018-08-16T03:54:10.094Z,18.57
2018-08-16T03:56:39.028Z,18.52
2018-08-16T03:59:07.874Z,18.54
2018-08-16T04:01:36.795Z,18.63
2018-08-16T04:04:05.745Z,18.36
2018-08-16T04:06:34.604Z,18.48
2018-08-16T04:09:03.561Z,18.14
2018-08-16T04:11:32.604Z,18.48
2018-08-16T04:14:01.421Z,18.34
2018-08-16T04:16:30.500Z,18.49
2018-08-16T04:18:59.377Z,18.15
2018-08-16T04:21:28.319Z,18.34
2018-08-16T04:23:57.235Z,18.56
2018-08-16T04:26:26.196Z,18.30
2018-08-16T04:28:55.038Z,18.45
2018-08-16T04:31:24.112Z,18.19
2018-08-16T04:33:52.954Z,18.23
2018-08-16T04:36:21.858Z,18.32
2018-08-16T04:38:50.778Z,18.24
2018-08-16T04:41:19.625Z,18.10
2018-08-16T04:43:48.600Z,18.42
2018-08-16T04:46:17.496Z,18.42
2018-08-16T04:48:46.453Z,18.41
2018-08-16T04:51:15.281Z,18.44
2018-08-16T04:53:44.235Z,18.29
2018-08-16T04:56:13.078Z,18.51
2018-08-16T04:58:41.916Z,18.38
2018-08-16T05:01:10.838Z,18.37
2018-08-16T05:03:39.795Z,18.39
2018-08-16T05:06:08.659Z,18.44
2018-08-16T05:08:37.552Z,18.41
2018-08-16T05:11:06.482Z,18.54
2018-08-16T05:13:35.317Z,18.27
2018-08-16T05:16:04.357Z,18.45
2018-08-16T05:18:33.223Z,18.46
2018-08-16T05:21:02.058Z,18.49
2018-08-16T05:23:31.006Z,18.59
2018-08-16T05:26:00.008Z,18.55
2018-08-16T05:28:28.887Z,18.65
2018-08-16T05:30:57.880Z,18.70
2018-08-16T05:33:26.809Z,18.65
2018-08-16T05:35:55.702Z,18.63
2018-08-16T05:38:24.639Z,18.66
2018-08-16T05:40:53.512Z,18.62
2018-08-16T05:43:22.426Z,18.66
2018-08-16T05:45:51.291Z,18.62
2018-08-16T05:48:20.692Z,18.70
2018-08-16T05:50:49.658Z,18.76
2018-08-16T05:53:18.591Z,18.77
2018-08-16T05:55:47.396Z,18.84
2018-08-16T05:58:16.391Z,18.87
2018-08-16T06:00:45.257Z,18.99
2018-08-16T06:03:14.110Z,18.94
2018-08-16T06:05:43.129Z,18.94
2018-08-16T06:08:11.958Z,19.03
2018-08-16T06:10:40.824Z,19.02
2018-08-16T06:13:09.892Z,19.01
2018-08-16T06:15:38.750Z,19.07
2018-08-16T06:18:07.696Z,19.05
2018-08-16T06:20:36.694Z,19.14
2018-08-16T06:23:05.720Z,19.20
2018-08-16T06:25:34.584Z,19.16
2018-08-16T06:28:03.489Z,19.21
2018-08-16T06:30:32.384Z,19.24
2018-08-16T06:33:01.234Z,19.24
2018-08-16T06:35:30.145Z,19.27
2018-08-16T06:37:58.996Z,19.31
2018-08-16T06:40:27.873Z,19.28
2018-08-16T06:42:56.779Z,19.40
2018-08-16T06:45:25.660Z,19.38
2018-08-16T06:47:55.114Z,19.41
2018-08-16T06:50:24.136Z,19.46
2018-08-16T06:52:53.012Z,19.53
2018-08-16T06:55:21.869Z,19.58
2018-08-16T06:57:50.842Z,19.59
2018-08-16T07:00:19.821Z,19.57
2018-08-16T07:02:48.691Z,19.61
2018-08-16T07:05:17.692Z,19.68
2018-08-16T07:07:46.554Z,19.70
2018-08-16T07:10:15.569Z,19.79
2018-08-16T07:12:44.533Z,19.82
2018-08-16T07:15:14.912Z,19.85
2018-08-16T07:17:44.447Z,19.82
2018-08-16T07:20:13.391Z,19.91
2018-08-16T07:22:42.309Z,20.04
2018-08-16T07:25:11.290Z,20.11
2018-08-16T07:27:40.298Z,20.23
2018-08-16T07:30:10.044Z,20.38
2018-08-16T07:32:39.308Z,20.32
2018-08-16T07:35:08.745Z,20.29
2018-08-16T07:37:37.619Z,20.36
2018-08-16T07:40:07.403Z,20.56
2018-08-16T07:42:36.254Z,20.68
2018-08-16T07:45:07.028Z,20.58
2018-08-16T07:47:36.054Z,20.70
2018-08-16T07:50:06.554Z,20.86
2018-08-16T07:52:35.505Z,20.72
2018-08-16T07:55:04.708Z,20.68
2018-08-16T07:57:33.716Z,20.68
2018-08-16T08:00:02.793Z,21.08
2018-08-16T08:02:31.731Z,20.95
2018-08-16T08:05:00.565Z,21.22
2018-08-16T08:07:29.623Z,21.05
2018-08-16T08:09:58.573Z,21.07
2018-08-16T08:12:27.552Z,21.38
2018-08-16T08:14:56.499Z,21.50
2018-08-16T08:17:25.389Z,21.49
2018-08-16T08:19:54.449Z,21.68
2018-08-16T08:22:23.333Z,21.81
2018-08-16T08:24:53.042Z,21.97
2018-08-16T08:27:21.936Z,21.86
2018-08-16T08:29:50.828Z,21.89
2018-08-16T08:32:19.818Z,22.16
2018-08-16T08:34:48.862Z,22.05
2018-08-16T08:37:28.995Z,22.09
2018-08-16T08:39:57.811Z,22.26
2018-08-16T08:42:26.694Z,22.18
2018-08-16T08:44:55.596Z,22.21
2018-08-16T08:47:29.058Z,22.31
2018-08-16T08:49:57.968Z,22.34
2018-08-16T08:52:26.908Z,22.72
2018-08-16T08:55:07.207Z,22.58
2018-08-16T08:57:47.393Z,22.70
2018-08-16T09:00:16.534Z,22.85
2018-08-16T09:02:45.413Z,22.60
2018-08-16T09:05:14.345Z,22.76
2018-08-16T09:07:43.530Z,22.72
2018-08-16T09:11:21.697Z,22.94
2018-08-16T09:14:05.283Z,23.09
2018-08-16T09:16:38.348Z,23.02
2018-08-16T09:19:08.288Z,23.39
2018-08-16T09:21:37.344Z,23.51
2018-08-16T09:24:06.388Z,23.40
2018-08-16T09:26:40.690Z,23.55
2018-08-16T09:29:20.756Z,23.61
2018-08-16T09:33:05.021Z,23.42
2018-08-16T09:35:34.418Z,23.47
2018-08-16T09:38:03.430Z,23.31
2018-08-16T09:40:32.339Z,23.78
2018-08-16T09:43:01.216Z,23.77
2018-08-16T09:45:41.844Z,23.91
2018-08-16T09:48:22.533Z,23.89
2018-08-16T09:50:51.444Z,23.96
2018-08-16T09:53:20.340Z,23.87
2018-08-16T09:55:49.216Z,23.64
2018-08-16T09:58:18.085Z,23.81
2018-08-16T10:00:52.390Z,23.68
2018-08-16T10:03:21.317Z,24.33
2018-08-16T10:05:50.240Z,24.52
2018-08-16T10:08:19.184Z,24.18
2018-08-16T10:10:48.096Z,23.74
2018-08-16T10:13:16.930Z,24.00
2018-08-16T10:15:45.862Z,23.99
2018-08-16T10:18:14.766Z,24.11
2018-08-16T10:20:43.679Z,24.69
2018-08-16T10:23:13.192Z,24.08
2018-08-16T10:25:42.184Z,24.34
2018-08-16T10:28:11.029Z,24.51
2018-08-16T10:30:39.896Z,24.67
2018-08-16T10:33:09.120Z,24.82
2018-08-16T10:35:38.040Z,24.65
2018-08-16T10:38:06.908Z,24.94
2018-08-16T10:40:35.827Z,25.27
2018-08-16T10:43:04.761Z,24.49
2018-08-16T10:45:33.598Z,24.70
2018-08-16T10:48:02.517Z,24.58
2018-08-16T10:50:31.444Z,24.71
2018-08-16T10:53:00.321Z,24.53
2018-08-16T10:55:29.249Z,24.85
2018-08-16T10:57:58.537Z,25.05
2018-08-16T11:00:27.662Z,25.18
2018-08-16T11:02:56.546Z,25.02
2018-08-16T11:05:25.397Z,25.54
2018-08-16T11:07:54.313Z,25.52
2018-08-16T11:10:23.205Z,25.59
2018-08-16T11:12:52.156Z,25.25
2018-08-16T11:15:21.070Z,25.17
2018-08-16T11:17:50.205Z,25.04
2018-08-16T11:20:19.171Z,25.36
2018-08-16T11:22:48.092Z,25.27
2018-08-16T11:25:16.953Z,25.11
2018-08-16T11:27:46.059Z,25.37
2018-08-16T11:30:15.124Z,25.63
2018-08-16T11:32:44.360Z,25.44
2018-08-16T11:35:13.461Z,25.36
2018-08-16T11:37:42.414Z,25.72
2018-08-16T11:40:11.514Z,25.61
2018-08-16T11:42:40.451Z,25.75
2018-08-16T11:45:09.769Z,25.85
2018-08-16T11:47:38.709Z,25.59
2018-08-16T11:50:07.544Z,25.58
2018-08-16T11:52:36.437Z,25.75
2018-08-16T11:55:05.348Z,25.78
2018-08-16T11:57:34.454Z,25.97
2018-08-16T12:00:03.393Z,25.76
2018-08-16T12:02:32.941Z,25.59
2018-08-16T12:05:02.483Z,25.71
2018-08-16T12:07:31.748Z,25.90
2018-08-16T12:10:00.902Z,26.09
2018-08-16T12:12:29.773Z,26.33
2018-08-16T12:14:58.672Z,26.36
2018-08-16T12:17:27.528Z,26.44
2018-08-16T12:19:56.399Z,26.39
2018-08-16T12:22:25.298Z,26.60
2018-08-16T12:24:54.240Z,26.12
2018-08-16T12:27:23.229Z,26.58
2018-08-16T12:29:52.280Z,26.51
2018-08-16T12:32:21.134Z,26.70
2018-08-16T12:34:50.068Z,26.89
2018-08-16T12:37:18.961Z,26.81
2018-08-16T12:39:47.828Z,26.69
2018-08-16T12:42:16.870Z,26.58
2018-08-16T12:44:45.783Z,26.48
2018-08-16T12:47:14.688Z,26.72
2018-08-16T12:49:43.487Z,26.66
2018-08-16T12:52:12.396Z,27.07
2018-08-16T12:54:41.256Z,27.11
2018-08-16T12:57:10.225Z,26.86
2018-08-16T12:59:39.310Z,27.05
2018-08-16T13:02:08.496Z,27.06
2018-08-16T13:04:37.470Z,27.07
2018-08-16T13:07:06.535Z,27.15
2018-08-16T13:09:35.502Z,27.22
2018-08-16T13:12:04.640Z,26.79
2018-08-16T13:14:33.570Z,26.97
2018-08-16T13:17:02.575Z,26.93
2018-08-16T13:19:31.461Z,27.33
2018-08-16T13:22:00.472Z,27.20
2018-08-16T13:24:29.468Z,27.26
2018-08-16T13:26:59.057Z,27.38
2018-08-16T13:29:28.941Z,27.24
2018-08-16T13:31:57.942Z,27.49
2018-08-16T13:34:26.933Z,27.45
2018-08-16T13:36:55.909Z,27.59
2018-08-16T13:39:24.830Z,27.36
2018-08-16T13:41:53.829Z,27.44
2018-08-16T13:44:22.701Z,27.63
2018-08-16T13:46:51.634Z,27.56
2018-08-16T13:49:20.586Z,27.40
2018-08-16T13:51:49.582Z,27.63
2018-08-16T13:54:18.472Z,27.57
2018-08-16T13:56:47.703Z,27.87
2018-08-16T13:59:16.695Z,27.80
2018-08-16T14:01:45.600Z,27.83
2018-08-16T14:04:16.344Z,27.77
2018-08-16T14:06:45.326Z,27.89
2018-08-16T14:09:14.219Z,27.70
2018-08-16T14:11:43.224Z,27.55
2018-08-16T14:14:12.257Z,27.58
2018-08-16T14:16:41.293Z,27.72
2018-08-16T14:19:10.201Z,27.61
2018-08-16T14:21:39.052Z,27.79
2018-08-16T14:24:08.020Z,27.77
2018-08-16T14:26:37.187Z,27.93
2018-08-16T14:29:06.097Z,28.09
2018-08-16T14:31:34.941Z,28.27
2018-08-16T14:34:04.200Z,28.14
2018-08-16T14:36:33.142Z,28.24
2018-08-16T14:39:02.049Z,28.15
2018-08-16T14:41:30.942Z,28.09
2018-08-16T14:43:59.883Z,27.89
2018-08-16T14:46:28.796Z,28.07
2018-08-16T14:48:57.781Z,28.30
2018-08-16T14:51:26.736Z,28.12
2018-08-16T14:53:55.581Z,27.94
2018-08-16T14:56:25.246Z,28.02
2018-08-16T14:58:54.186Z,28.25
2018-08-16T15:01:23.029Z,28.22
2018-08-16T15:12:59.792Z,28.47
2018-08-16T15:15:44.841Z,28.34
2018-08-16T15:18:14.371Z,28.31
2018-08-16T15:20:44.487Z,28.31
2018-08-16T15:23:13.384Z,28.35
2018-08-16T15:25:42.415Z,28.43
2018-08-16T15:28:39.371Z,28.57
2018-08-16T15:31:08.463Z,28.60
2018-08-16T15:33:37.394Z,28.59
2018-08-16T15:36:06.386Z,28.44
2018-08-16T15:38:35.337Z,28.61
2018-08-16T15:42:17.766Z,28.67
2018-08-16T15:44:46.808Z,28.58
2018-08-16T15:47:15.750Z,28.47
2018-08-16T15:49:44.648Z,28.45
2018-08-16T15:52:13.557Z,28.57
2018-08-16T15:54:42.457Z,28.57
2018-08-16T15:57:11.505Z,28.50
2018-08-16T15:59:40.557Z,28.58
2018-08-16T16:02:09.517Z,28.56
2018-08-16T16:04:38.409Z,28.39
2018-08-16T16:07:07.464Z,28.43
2018-08-16T16:09:36.360Z,28.51
2018-08-16T16:12:05.240Z,28.51
2018-08-16T16:14:34.193Z,28.37
2018-08-16T16:17:03.138Z,28.19
2018-08-16T16:19:32.068Z,28.27
2018-08-16T16:22:01.276Z,28.21
2018-08-16T16:24:30.378Z,28.34
2018-08-16T16:26:59.350Z,28.32
2018-08-16T16:29:28.295Z,28.27
2018-08-16T16:31:57.206Z,28.33
2018-08-16T16:34:26.369Z,28.22
2018-08-16T16:36:55.314Z,28.05
2018-08-16T16:39:24.213Z,27.95
2018-08-16T16:41:53.131Z,27.97
2018-08-16T16:44:22.040Z,27.96
2018-08-16T16:46:51.021Z,27.82
2018-08-16T16:49:22.844Z,27.77
2018-08-16T16:51:52.601Z,27.81
2018-08-16T16:54:21.602Z,27.79
2018-08-16T16:56:51.205Z,27.88
2018-08-16T16:59:20.150Z,27.83
2018-08-16T17:01:48.999Z,27.75
2018-08-16T17:04:17.897Z,27.73
2018-08-16T17:06:46.886Z,27.72
2018-08-16T17:09:15.772Z,27.81
2018-08-16T17:11:44.722Z,27.84
2018-08-16T17:17:38.505Z,27.64
2018-08-16T17:20:08.129Z,27.71
2018-08-16T17:22:37.065Z,27.65
2018-08-16T17:25:06.426Z,27.64
2018-08-16T17:27:35.482Z,27.62
2018-08-16T17:30:05.196Z,27.66
2018-08-16T17:32:34.124Z,27.60
2018-08-16T17:35:03.260Z,27.61
2018-08-16T17:37:32.220Z,27.60
2018-08-16T17:40:01.197Z,27.62
2018-08-16T17:42:30.250Z,27.57
2018-08-16T17:44:59.170Z,27.57
2018-08-16T17:47:28.192Z,27.57
2018-08-16T17:49:57.186Z,27.50
2018-08-16T17:52:26.126Z,27.42
2018-08-16T17:54:55.074Z,27.32
2018-08-16T17:57:24.935Z,27.31
2018-08-16T18:02:50.622Z,27.20
2018-08-16T18:05:19.452Z,27.07
2018-08-16T18:07:48.345Z,27.04
2018-08-16T18:10:17.344Z,26.95
2018-08-16T18:12:46.303Z,26.83
2018-08-16T18:15:15.831Z,26.70
2018-08-16T18:17:44.875Z,26.69
2018-08-16T18:20:16.455Z,26.67
2018-08-16T18:22:45.436Z,26.48
2018-08-16T18:25:14.437Z,26.48
2018-08-16T18:27:43.336Z,26.47
2018-08-16T18:30:12.913Z,26.43
2018-08-16T18:32:42.510Z,26.44
2018-08-16T18:35:11.606Z,26.44
2018-08-16T18:37:41.104Z,26.30
2018-08-16T18:40:10.163Z,26.31
2018-08-16T18:42:39.116Z,26.26
2018-08-16T18:45:10.350Z,26.23
2018-08-16T18:47:41.104Z,26.17
2018-08-16T18:50:10.826Z,26.11
2018-08-16T18:52:39.754Z,25.96
2018-08-16T18:55:08.732Z,25.98
2018-08-16T18:57:38.675Z,25.82
2018-08-16T19:00:08.473Z,25.72
2018-08-16T19:02:37.399Z,25.67
2018-08-16T19:05:06.434Z,25.71
2018-08-16T19:07:36.409Z,25.65
2018-08-16T19:10:15.949Z,25.37
2018-08-16T19:12:44.765Z,25.32
2018-08-16T19:18:11.487Z,25.34
2018-08-16T19:20:41.437Z,25.30
2018-08-16T19:23:10.318Z,25.22
2018-08-16T19:25:39.250Z,25.27
2018-08-16T19:28:08.320Z,25.22
2018-08-16T19:30:37.352Z,25.33
2018-08-16T19:33:06.608Z,25.42
2018-08-16T19:35:35.722Z,25.40
2018-08-16T19:38:04.767Z,25.31
2018-08-16T19:40:33.630Z,25.47
2018-08-16T19:43:02.510Z,25.59
2018-08-16T19:45:31.430Z,25.45
2018-08-16T19:48:00.400Z,25.51
2018-08-16T19:50:29.162Z,25.53
2018-08-16T19:52:58.140Z,25.61
2018-08-16T19:55:26.992Z,25.56
2018-08-16T19:57:56.006Z,25.55
2018-08-16T20:00:24.988Z,25.55
2018-08-16T20:02:54.004Z,25.59
2018-08-16T20:05:22.865Z,25.47
2018-08-16T20:07:52.040Z,25.43
2018-08-16T20:10:21.071Z,25.37
2018-08-16T20:15:54.558Z,25.42
2018-08-16T20:24:00.076Z,25.24
2018-08-16T20:26:30.369Z,25.10
2018-08-16T20:28:59.221Z,25.18
2018-08-16T20:32:23.909Z,25.11
2018-08-16T20:34:52.836Z,25.03
2018-08-16T20:37:21.771Z,25.07
2018-08-16T20:39:50.611Z,24.94
2018-08-16T20:42:19.555Z,24.86
2018-08-16T20:44:48.573Z,24.99
2018-08-16T20:47:17.420Z,25.05
2018-08-16T20:49:46.349Z,24.98
2018-08-16T20:52:15.311Z,25.03
2018-08-16T20:54:44.201Z,24.90
2018-08-16T20:57:13.199Z,24.99
2018-08-16T20:59:42.185Z,24.95
2018-08-16T21:02:12.283Z,24.93
2018-08-16T21:04:41.379Z,24.91
2018-08-16T21:07:10.476Z,24.82
2018-08-16T21:09:40.080Z,24.82
2018-08-16T21:12:09.085Z,24.59
2018-08-16T21:14:38.159Z,24.75
2018-08-16T21:17:07.697Z,24.71
2018-08-16T21:19:37.060Z,24.71
2018-08-16T21:22:06.389Z,24.71
2018-08-16T21:24:36.623Z,24.75
2018-08-16T21:27:06.686Z,24.56
2018-08-16T21:29:35.876Z,24.37
2018-08-16T21:32:04.898Z,24.37
2018-08-16T21:34:34.073Z,24.28
2018-08-16T21:37:03.216Z,24.11
2018-08-16T21:39:32.179Z,24.02
2018-08-16T21:42:01.112Z,23.90
2018-08-16T21:44:30.101Z,24.02
2018-08-16T21:46:59.055Z,24.01
2018-08-16T21:49:28.157Z,24.04
2018-08-16T21:51:57.065Z,23.88
2018-08-16T21:54:25.956Z,23.90
2018-08-16T21:56:54.901Z,24.08
2018-08-16T21:59:23.801Z,23.98
2018-08-16T22:01:52.870Z,24.07
2018-08-16T22:04:21.895Z,24.02
2018-08-16T22:06:57.816Z,23.85
2018-08-16T22:09:26.996Z,23.50
2018-08-16T22:11:55.966Z,23.74
2018-08-16T22:14:24.868Z,23.52
2018-08-16T22:16:53.935Z,23.60
2018-08-16T22:19:22.883Z,23.67
2018-08-16T22:21:51.916Z,23.34
2018-08-16T22:24:26.534Z,23.58
2018-08-16T22:26:55.557Z,23.57
2018-08-16T22:29:31.885Z,23.16
2018-08-16T22:32:02.192Z,23.16
2018-08-16T22:34:33.005Z,23.28
2018-08-16T22:37:04.467Z,23.45
2018-08-16T22:39:35.142Z,23.53
2018-08-16T22:42:07.416Z,23.44
2018-08-16T22:44:38.139Z,23.34
2018-08-16T22:47:11.283Z,23.34
2018-08-16T22:49:40.671Z,23.22
2018-08-16T22:52:09.569Z,23.01
2018-08-16T22:54:38.560Z,23.16
2018-08-16T22:57:07.595Z,22.90
2018-08-16T22:59:36.708Z,22.85
2018-08-16T23:02:05.732Z,23.00
2018-08-16T23:04:34.706Z,23.06
2018-08-16T23:07:03.600Z,23.09
2018-08-16T23:09:32.479Z,22.89
2018-08-16T23:12:01.393Z,22.70
2018-08-16T23:14:30.433Z,22.63
2018-08-16T23:16:59.445Z,22.25
2018-08-16T23:19:28.370Z,22.79
2018-08-16T23:21:57.296Z,22.69
2018-08-16T23:24:26.208Z,22.58
2018-08-16T23:26:55.121Z,22.62
2018-08-16T23:29:24.028Z,22.36
2018-08-16T23:31:52.966Z,22.18
2018-08-16T23:34:21.899Z,22.42
2018-08-16T23:36:50.872Z,22.32
2018-08-16T23:39:37.527Z,22.34
2018-08-16T23:42:06.493Z,21.79
2018-08-16T23:44:35.522Z,22.29
2018-08-16T23:47:04.455Z,22.55
2018-08-16T23:49:33.328Z,22.47
2018-08-16T23:52:02.423Z,22.63
2018-08-16T23:54:31.519Z,22.59
2018-08-16T23:57:00.376Z,22.41
2018-08-16T23:59:29.256Z,22.54
